createdAt,value
2019-05-07T00:00:44.578Z,4.08
2019-05-07T00:03:33.392Z,4.07
2019-05-07T00:06:03.014Z,3.98
2019-05-07T00:08:32.545Z,3.91
2019-05-07T00:11:02.430Z,3.86
2019-05-07T00:13:33.362Z,3.75
2019-05-07T00:16:02.957Z,3.93
2019-05-07T00:18:32.482Z,3.98
2019-05-07T00:21:03.548Z,3.95
2019-05-07T00:23:33.090Z,3.84
2019-05-07T00:26:03.809Z,3.78
2019-05-07T00:28:33.341Z,3.76
2019-05-07T00:31:03.052Z,3.75
2019-05-07T00:33:33.488Z,3.61
2019-05-07T00:36:42.099Z,3.28
2019-05-07T00:39:52.882Z,3.13
2019-05-07T00:42:37.096Z,3.44
2019-05-07T00:45:38.300Z,3.60
2019-05-07T00:48:07.797Z,3.02
2019-05-07T00:50:38.943Z,3.24
2019-05-07T00:53:08.428Z,3.38
2019-05-07T00:55:37.885Z,3.36
2019-05-07T00:58:07.381Z,3.19
2019-05-07T01:00:37.568Z,3.08
2019-05-07T01:03:07.053Z,2.92
2019-05-07T01:05:36.538Z,2.77
2019-05-07T01:08:25.373Z,3.02
2019-05-07T01:11:14.287Z,2.89
2019-05-07T01:13:57.043Z,2.64
2019-05-07T01:16:45.976Z,2.50
2019-05-07T01:19:27.899Z,2.13
2019-05-07T01:21:57.401Z,2.13
2019-05-07T01:24:26.913Z,2.46
2019-05-07T01:26:56.414Z,2.15
2019-05-07T01:29:25.935Z,2.09
2019-05-07T01:31:59.821Z,1.85
2019-05-07T01:34:32.280Z,1.74
2019-05-07T01:37:02.697Z,1.84
2019-05-07T01:39:32.768Z,1.64
2019-05-07T01:42:22.242Z,1.58
2019-05-07T01:44:53.068Z,1.37
2019-05-07T01:47:23.729Z,1.33
2019-05-07T01:49:55.058Z,1.26
2019-05-07T01:52:24.563Z,1.38
2019-05-07T01:54:54.081Z,1.80
2019-05-07T01:57:23.604Z,1.62
2019-05-07T01:59:53.074Z,1.19
2019-05-07T02:02:24.214Z,1.00
2019-05-07T02:05:03.182Z,0.93
2019-05-07T02:10:33.841Z,0.67
2019-05-07T02:13:03.312Z,0.56
2019-05-07T02:15:32.814Z,0.52
2019-05-07T02:21:10.083Z,-0.33
2019-05-07T02:23:39.558Z,0.31
2019-05-07T02:26:09.038Z,0.24
2019-05-07T02:28:38.525Z,0.16
2019-05-07T02:31:08.030Z,0.06
2019-05-07T02:33:38.051Z,0.05
2019-05-07T02:36:07.522Z,0.37
2019-05-07T02:38:36.786Z,0.26
2019-05-07T02:41:08.172Z,0.03
2019-05-07T02:43:37.680Z,-0.14
2019-05-07T02:46:22.322Z,-0.17
2019-05-07T02:48:44.636Z,-0.25
2019-05-07T02:51:15.806Z,-0.22
2019-05-07T02:53:53.641Z,-0.25
2019-05-07T02:56:23.754Z,-0.31
2019-05-07T02:58:53.311Z,-0.36
2019-05-07T03:01:22.885Z,-0.38
2019-05-07T03:04:12.903Z,-0.38
2019-05-07T03:07:03.849Z,-0.37
2019-05-07T03:09:33.618Z,-0.34
2019-05-07T03:12:04.112Z,-0.38
2019-05-07T03:14:33.900Z,-0.21
2019-05-07T03:17:03.426Z,-0.34
2019-05-07T03:19:34.773Z,-0.37
2019-05-07T03:22:04.354Z,-0.45
2019-05-07T03:25:13.553Z,-0.44
2019-05-07T03:27:56.507Z,-1.27
2019-05-07T03:33:47.046Z,-0.48
2019-05-07T03:36:16.525Z,-0.50
2019-05-07T03:39:16.315Z,-0.56
2019-05-07T03:41:45.837Z,-0.66
2019-05-07T03:44:17.042Z,-0.62
2019-05-07T03:47:24.905Z,-0.72
2019-05-07T03:49:54.970Z,-0.78
2019-05-07T03:52:24.768Z,-0.71
2019-05-07T03:54:54.331Z,-0.77
2019-05-07T03:57:24.227Z,-0.79
2019-05-07T03:59:54.172Z,-0.80
2019-05-07T04:02:24.199Z,-0.78
2019-05-07T04:04:53.760Z,-0.79
2019-05-07T04:07:23.599Z,-0.87
2019-05-07T04:09:53.550Z,-0.78
2019-05-07T04:12:44.104Z,-0.73
2019-05-07T04:15:18.615Z,-1.31
2019-05-07T04:17:45.327Z,-0.66
2019-05-07T04:20:14.960Z,-0.59
2019-05-07T04:22:44.517Z,-0.50
2019-05-07T04:25:28.023Z,-0.44
2019-05-07T04:28:00.177Z,-0.39
2019-05-07T04:30:33.106Z,-0.32
2019-05-07T04:33:12.880Z,-0.24
2019-05-07T04:35:45.423Z,-0.19
2019-05-07T04:38:14.928Z,-0.14
2019-05-07T04:40:44.453Z,-0.03
2019-05-07T04:43:14.013Z,0.02
2019-05-07T04:45:43.749Z,0.10
2019-05-07T04:48:14.162Z,0.19
2019-05-07T04:50:47.630Z,0.31
2019-05-07T04:53:16.838Z,0.48
2019-05-07T04:55:46.308Z,0.77
2019-05-07T04:58:15.778Z,1.06
2019-05-07T05:00:45.646Z,1.14
2019-05-07T05:03:25.718Z,1.22
2019-05-07T05:05:56.314Z,1.18
2019-05-07T05:08:25.796Z,1.47
2019-05-07T05:10:55.286Z,3.92
2019-05-07T05:13:44.839Z,7.36
2019-05-07T05:16:34.646Z,9.41
2019-05-07T05:19:17.107Z,10.60
2019-05-07T05:21:52.933Z,11.70
2019-05-07T05:24:23.999Z,11.80
2019-05-07T05:27:12.834Z,11.91
2019-05-07T05:29:42.999Z,11.56
2019-05-07T05:32:12.584Z,12.69
2019-05-07T05:34:42.675Z,13.69
2019-05-07T05:37:12.127Z,12.71
2019-05-07T05:39:42.597Z,12.63
2019-05-07T05:42:16.562Z,12.93
2019-05-07T05:44:46.098Z,13.05
2019-05-07T05:47:15.579Z,14.40
2019-05-07T05:49:45.323Z,14.51
2019-05-07T05:52:16.455Z,16.69
2019-05-07T05:54:50.225Z,16.01
2019-05-07T05:57:23.737Z,16.45
2019-05-07T05:59:57.796Z,17.58
2019-05-07T06:02:32.451Z,18.24
2019-05-07T06:05:06.364Z,16.45
2019-05-07T06:08:17.462Z,18.36
2019-05-07T06:10:53.015Z,17.66
2019-05-07T06:13:24.147Z,16.16
2019-05-07T06:16:07.366Z,18.85
2019-05-07T06:18:52.428Z,18.98
2019-05-07T06:21:39.110Z,19.58
2019-05-07T06:24:11.885Z,18.55
2019-05-07T06:26:42.574Z,19.25
2019-05-07T06:29:12.131Z,17.97
2019-05-07T06:31:42.177Z,17.17
2019-05-07T06:34:12.451Z,18.25
2019-05-07T06:36:42.700Z,16.70
2019-05-07T06:39:16.563Z,16.55
2019-05-07T06:42:03.567Z,17.31
2019-05-07T06:44:33.639Z,16.77
2019-05-07T06:47:03.134Z,18.03
2019-05-07T06:49:32.619Z,19.24
2019-05-07T06:52:03.056Z,16.83
2019-05-07T06:54:32.574Z,16.98
2019-05-07T06:57:02.122Z,18.50
2019-05-07T06:59:34.729Z,18.25
2019-05-07T07:02:24.070Z,20.64
2019-05-07T07:04:55.433Z,19.63
2019-05-07T07:07:33.895Z,19.24
2019-05-07T07:10:39.107Z,19.48
2019-05-07T07:13:23.110Z,20.38
2019-05-07T07:16:12.663Z,20.48
2019-05-07T07:18:51.978Z,20.73
2019-05-07T07:21:14.357Z,20.98
2019-05-07T07:23:43.848Z,21.38
2019-05-07T07:26:13.397Z,20.38
2019-05-07T07:28:43.069Z,18.16
2019-05-07T07:31:12.974Z,17.32
2019-05-07T07:33:44.207Z,19.62
2019-05-07T07:36:13.711Z,20.36
2019-05-07T07:41:57.273Z,18.52
2019-05-07T07:44:26.743Z,20.44
2019-05-07T07:46:56.234Z,20.26
2019-05-07T07:49:25.725Z,22.18
2019-05-07T07:51:55.214Z,20.40
2019-05-07T07:54:25.639Z,20.49
2019-05-07T07:57:02.330Z,20.41
2019-05-07T07:59:49.752Z,20.68
2019-05-07T08:02:23.508Z,19.52
2019-05-07T08:04:52.989Z,18.64
2019-05-07T08:07:23.024Z,17.65
2019-05-07T08:09:52.458Z,19.43
2019-05-07T08:12:22.323Z,20.10
2019-05-07T08:14:52.102Z,20.79
2019-05-07T08:17:22.363Z,20.68
2019-05-07T08:19:52.177Z,20.78
2019-05-07T08:22:22.549Z,23.07
2019-05-07T08:24:52.269Z,22.62
2019-05-07T08:27:22.296Z,21.24
2019-05-07T08:33:51.848Z,20.64
2019-05-07T08:36:33.139Z,20.97
2019-05-07T08:39:02.937Z,18.60
2019-05-07T08:41:32.420Z,18.38
2019-05-07T08:44:11.801Z,18.01
2019-05-07T08:46:36.459Z,19.05
2019-05-07T08:49:07.740Z,19.54
2019-05-07T08:51:37.949Z,18.18
2019-05-07T08:54:07.715Z,22.29
2019-05-07T08:56:37.932Z,19.83
2019-05-07T08:59:08.190Z,19.18
2019-05-07T09:01:39.867Z,19.73
2019-05-07T09:04:09.392Z,19.96
2019-05-07T09:06:38.892Z,19.88
2019-05-07T09:09:27.809Z,22.30
2019-05-07T09:12:16.622Z,21.72
2019-05-07T09:14:46.128Z,22.02
2019-05-07T09:17:15.610Z,20.92
2019-05-07T09:19:51.509Z,22.89
2019-05-07T09:22:16.368Z,20.22
2019-05-07T09:24:45.932Z,21.02
2019-05-07T09:27:22.945Z,20.98
2019-05-07T09:29:57.028Z,19.39
2019-05-07T09:32:28.303Z,20.67
2019-05-07T09:35:08.080Z,20.31
2019-05-07T09:37:37.655Z,20.05
2019-05-07T09:40:07.935Z,20.89
2019-05-07T09:42:37.415Z,21.75
2019-05-07T09:45:08.625Z,20.03
2019-05-07T09:47:38.131Z,23.29
2019-05-07T09:50:09.039Z,23.91
2019-05-07T09:52:38.627Z,22.41
2019-05-07T09:55:16.679Z,21.23
2019-05-07T09:57:42.220Z,20.12
2019-05-07T10:00:12.727Z,18.06
2019-05-07T10:02:42.650Z,19.51
2019-05-07T10:05:13.498Z,21.42
2019-05-07T10:07:43.065Z,21.27
2019-05-07T10:10:13.450Z,21.91
2019-05-07T10:12:44.859Z,22.17
2019-05-07T10:15:33.741Z,22.51
2019-05-07T10:18:17.824Z,21.35
2019-05-07T10:20:47.307Z,23.27
2019-05-07T10:23:23.271Z,18.81
2019-05-07T10:25:53.794Z,17.43
2019-05-07T10:28:24.005Z,18.17
2019-05-07T10:30:54.293Z,18.31
2019-05-07T10:33:24.004Z,21.95
2019-05-07T10:35:53.491Z,21.03
2019-05-07T10:38:42.328Z,17.20
2019-05-07T10:41:12.453Z,21.31
2019-05-07T10:43:42.885Z,20.74
2019-05-07T10:46:14.000Z,22.89
2019-05-07T10:48:45.277Z,20.54
2019-05-07T10:51:14.919Z,19.97
2019-05-07T10:53:44.466Z,18.85
2019-05-07T10:56:33.323Z,22.53
2019-05-07T10:59:03.036Z,20.71
2019-05-07T11:01:35.218Z,21.45
2019-05-07T11:04:04.878Z,25.75
2019-05-07T11:06:34.353Z,24.51
2019-05-07T11:09:05.477Z,21.71
2019-05-07T11:11:35.026Z,23.17
2019-05-07T11:14:05.725Z,23.93
2019-05-07T11:16:36.920Z,23.11
2019-05-07T11:19:06.418Z,24.55
2019-05-07T11:21:35.935Z,21.69
2019-05-07T11:24:05.947Z,20.84
2019-05-07T11:26:35.694Z,19.94
2019-05-07T11:29:05.360Z,19.36
2019-05-07T11:31:34.869Z,20.98
2019-05-07T11:34:04.416Z,20.91
2019-05-07T11:36:34.461Z,20.64
2019-05-07T11:39:05.864Z,19.60
2019-05-07T11:41:40.039Z,21.45
2019-05-07T11:44:12.418Z,23.05
2019-05-07T11:46:44.483Z,27.52
2019-05-07T11:49:15.709Z,19.16
2019-05-07T11:51:46.841Z,18.77
2019-05-07T11:54:16.345Z,19.95
2019-05-07T11:56:45.815Z,19.02
2019-05-07T11:59:15.303Z,19.06
2019-05-07T12:01:48.027Z,19.60
2019-05-07T12:04:17.732Z,20.61
2019-05-07T12:06:47.211Z,19.43
2019-05-07T12:09:16.702Z,19.07
2019-05-07T12:11:46.185Z,20.59
2019-05-07T12:14:27.992Z,20.77
2019-05-07T12:16:47.990Z,19.44
2019-05-07T12:19:17.503Z,18.02
2019-05-07T12:21:47.065Z,18.28
2019-05-07T12:24:16.704Z,16.06
2019-05-07T12:26:46.295Z,20.53
2019-05-07T12:29:15.777Z,22.54
2019-05-07T12:31:52.009Z,21.24
2019-05-07T12:34:25.240Z,19.91
2019-05-07T12:36:54.746Z,19.76
2019-05-07T12:39:24.297Z,19.15
2019-05-07T12:41:53.790Z,18.57
2019-05-07T12:44:23.269Z,17.81
2019-05-07T12:46:52.794Z,18.41
2019-05-07T12:49:22.364Z,17.75
2019-05-07T12:51:53.458Z,16.96
2019-05-07T12:54:24.656Z,16.36
2019-05-07T12:56:54.159Z,16.24
2019-05-07T12:59:24.905Z,16.42
2019-05-07T13:01:56.039Z,16.14
2019-05-07T13:04:27.175Z,15.63
2019-05-07T13:07:13.146Z,16.28
2019-05-07T13:09:42.850Z,15.38
2019-05-07T13:12:12.292Z,15.87
2019-05-07T13:14:41.790Z,16.11
2019-05-07T13:17:12.066Z,15.96
2019-05-07T13:19:42.084Z,15.90
2019-05-07T13:22:13.063Z,16.18
2019-05-07T13:24:42.728Z,15.88
2019-05-07T13:27:12.179Z,16.58
2019-05-07T13:29:44.740Z,15.87
2019-05-07T13:32:16.163Z,16.55
2019-05-07T13:34:46.466Z,16.75
2019-05-07T13:37:21.952Z,17.20
2019-05-07T13:39:53.326Z,17.35
2019-05-07T13:42:31.997Z,17.02
2019-05-07T13:45:05.799Z,17.33
2019-05-07T13:47:36.426Z,16.86
2019-05-07T13:50:07.335Z,17.08
2019-05-07T13:52:56.153Z,16.46
2019-05-07T13:55:38.993Z,16.67
2019-05-07T13:58:08.650Z,17.18
2019-05-07T14:00:42.817Z,16.91
2019-05-07T14:03:12.297Z,16.35
2019-05-07T14:05:42.656Z,16.05
2019-05-07T14:08:14.134Z,15.96
2019-05-07T14:10:43.476Z,15.84
2019-05-07T14:13:17.272Z,16.09
2019-05-07T14:16:02.809Z,16.53
2019-05-07T14:18:44.785Z,16.68
2019-05-07T14:21:33.621Z,17.17
2019-05-07T14:24:15.660Z,16.96
2019-05-07T14:26:45.225Z,16.88
2019-05-07T14:29:14.686Z,15.88
2019-05-07T14:35:15.936Z,16.56
2019-05-07T14:38:23.817Z,16.84
2019-05-07T14:40:53.306Z,17.17
2019-05-07T14:43:27.114Z,16.87
2019-05-07T14:45:56.619Z,16.55
2019-05-07T14:48:26.100Z,15.87
2019-05-07T14:50:55.586Z,14.82
2019-05-07T14:53:44.402Z,14.98
2019-05-07T14:56:26.924Z,14.75
2019-05-07T14:59:15.746Z,14.44
2019-05-07T15:01:58.084Z,14.79
2019-05-07T15:04:27.638Z,14.19
2019-05-07T15:06:57.131Z,14.62
2019-05-07T15:09:26.652Z,14.87
2019-05-07T15:11:56.131Z,15.07
2019-05-07T15:14:25.605Z,14.78
2019-05-07T15:16:56.787Z,14.44
2019-05-07T15:19:26.364Z,14.57
2019-05-07T15:21:57.539Z,14.33
2019-05-07T15:24:27.093Z,14.53
2019-05-07T15:26:56.943Z,14.67
2019-05-07T15:29:26.557Z,14.78
2019-05-07T15:31:57.699Z,14.53
2019-05-07T15:34:27.257Z,14.71
2019-05-07T15:36:56.791Z,14.22
2019-05-07T15:39:26.295Z,14.33
2019-05-07T15:41:55.937Z,14.77
2019-05-07T15:44:25.496Z,15.27
2019-05-07T15:46:56.639Z,15.06
2019-05-07T15:49:26.133Z,15.01
2019-05-07T15:51:57.263Z,15.10
2019-05-07T15:54:26.756Z,14.95
2019-05-07T15:56:57.891Z,14.74
2019-05-07T15:59:27.392Z,14.87
2019-05-07T16:02:02.883Z,14.93
2019-05-07T16:04:32.899Z,15.10
2019-05-07T16:07:05.095Z,15.26
2019-05-07T16:09:43.688Z,15.35
2019-05-07T16:12:14.866Z,15.03
2019-05-07T16:18:19.622Z,14.84
2019-05-07T16:20:57.799Z,15.09
2019-05-07T16:23:27.289Z,15.19
2019-05-07T16:25:56.756Z,15.13
2019-05-07T16:28:26.255Z,14.77
2019-05-07T16:30:55.757Z,14.36
2019-05-07T16:33:25.244Z,14.29
2019-05-07T16:35:54.739Z,14.03
2019-05-07T16:38:24.233Z,13.91
2019-05-07T16:40:53.719Z,13.97
2019-05-07T16:43:23.225Z,14.07
2019-05-07T16:45:52.702Z,13.81
2019-05-07T16:48:23.247Z,13.78
2019-05-07T16:50:52.780Z,13.68
2019-05-07T16:53:29.707Z,13.59
2019-05-07T16:55:53.473Z,13.44
2019-05-07T16:58:27.032Z,13.31
2019-05-07T17:01:00.130Z,12.70
2019-05-07T17:03:33.669Z,12.85
2019-05-07T17:06:03.150Z,12.83
2019-05-07T17:08:51.673Z,13.03
2019-05-07T17:11:22.641Z,12.97
2019-05-07T17:13:52.199Z,12.98
2019-05-07T17:16:22.799Z,12.79
2019-05-07T17:18:52.481Z,12.67
2019-05-07T17:21:21.973Z,12.45
2019-05-07T17:23:51.999Z,12.51
2019-05-07T17:26:23.224Z,12.36
2019-05-07T17:28:52.773Z,12.25
2019-05-07T17:31:22.873Z,12.21
2019-05-07T17:33:52.524Z,12.15
2019-05-07T17:36:22.515Z,12.06
2019-05-07T17:38:52.132Z,12.64
2019-05-07T17:41:26.788Z,12.23
2019-05-07T17:43:52.851Z,12.02
2019-05-07T17:46:22.398Z,11.93
2019-05-07T17:48:52.397Z,11.77
2019-05-07T17:51:42.304Z,12.24
2019-05-07T17:54:13.282Z,11.84
2019-05-07T17:56:43.854Z,11.96
2019-05-07T17:59:14.075Z,11.84
2019-05-07T18:01:52.872Z,11.56
2019-05-07T18:04:21.968Z,11.48
2019-05-07T18:07:04.708Z,11.17
2019-05-07T18:09:34.380Z,10.87
2019-05-07T18:12:03.867Z,10.90
2019-05-07T18:14:33.365Z,10.26
2019-05-07T18:17:04.488Z,9.81
2019-05-07T18:19:33.978Z,9.45
2019-05-07T18:22:03.711Z,9.29
2019-05-07T18:24:33.189Z,8.97
2019-05-07T18:27:04.308Z,8.77
2019-05-07T18:29:33.800Z,8.73
2019-05-07T18:32:04.926Z,8.68
2019-05-07T18:34:34.841Z,8.64
2019-05-07T18:37:04.394Z,8.50
2019-05-07T18:39:33.892Z,8.44
2019-05-07T18:42:03.373Z,8.47
2019-05-07T18:44:32.864Z,8.25
2019-05-07T18:47:22.326Z,8.62
2019-05-07T18:49:52.893Z,7.97
2019-05-07T18:52:23.092Z,8.66
2019-05-07T18:55:12.139Z,8.69
2019-05-07T18:57:56.241Z,8.64
2019-05-07T19:00:33.113Z,8.23
2019-05-07T19:03:03.474Z,8.18
2019-05-07T19:05:33.054Z,8.64
2019-05-07T19:08:08.003Z,8.39
2019-05-07T19:10:33.906Z,7.95
2019-05-07T19:13:03.634Z,7.70
2019-05-07T19:15:33.101Z,7.45
2019-05-07T19:18:02.823Z,7.31
2019-05-07T19:20:32.781Z,7.15
2019-05-07T19:23:02.798Z,7.08
2019-05-07T19:25:32.764Z,6.95
2019-05-07T19:28:02.380Z,6.84
2019-05-07T19:30:32.598Z,6.75
2019-05-07T19:33:02.254Z,6.70
2019-05-07T19:35:32.763Z,6.80
2019-05-07T19:38:02.905Z,6.73
2019-05-07T19:40:32.652Z,6.60
2019-05-07T19:43:02.957Z,6.55
2019-05-07T19:45:32.582Z,6.48
2019-05-07T19:48:02.860Z,6.40
2019-05-07T19:50:32.528Z,6.27
2019-05-07T19:53:02.976Z,6.22
2019-05-07T19:55:34.182Z,6.12
2019-05-07T19:58:05.297Z,5.94
2019-05-07T20:00:34.781Z,5.84
2019-05-07T20:03:04.436Z,5.79
2019-05-07T20:06:13.004Z,5.74
2019-05-07T20:08:43.898Z,6.10
2019-05-07T20:11:31.975Z,5.66
2019-05-07T20:14:02.148Z,5.45
2019-05-07T20:16:32.964Z,5.31
2019-05-07T20:19:03.862Z,5.56
2019-05-07T20:21:33.364Z,5.56
2019-05-07T20:24:02.853Z,5.25
2019-05-07T20:26:32.929Z,5.18
2019-05-07T20:29:03.044Z,4.99
2019-05-07T20:31:33.757Z,4.90
2019-05-07T20:34:03.309Z,4.88
2019-05-07T20:36:32.979Z,4.90
2019-05-07T20:39:02.482Z,4.83
2019-05-07T20:41:32.947Z,4.78
2019-05-07T20:44:22.032Z,5.00
2019-05-07T20:47:04.462Z,4.91
2019-05-07T20:49:33.953Z,4.86
2019-05-07T20:52:03.439Z,4.46
2019-05-07T20:54:37.320Z,4.33
2019-05-07T20:57:08.522Z,4.20
2019-05-07T20:59:38.013Z,4.14
2019-05-07T21:02:07.573Z,4.19
2019-05-07T21:04:37.075Z,4.23
2019-05-07T21:07:06.559Z,4.03
2019-05-07T21:09:36.054Z,4.22
2019-05-07T21:12:05.675Z,3.97
2019-05-07T21:14:36.411Z,3.86
2019-05-07T21:17:05.896Z,3.83
2019-05-07T21:19:35.402Z,3.90
2019-05-07T21:22:04.871Z,3.64
2019-05-07T21:24:34.358Z,3.59
2019-05-07T21:27:23.184Z,3.49
2019-05-07T21:30:13.063Z,3.43
2019-05-07T21:32:43.282Z,3.46
2019-05-07T21:35:12.888Z,3.30
2019-05-07T21:37:42.357Z,3.20
2019-05-07T21:40:12.992Z,3.10
2019-05-07T21:42:42.700Z,3.07
2019-05-07T21:45:12.420Z,3.31
2019-05-07T21:47:41.913Z,3.14
2019-05-07T21:50:12.411Z,2.99
2019-05-07T21:52:43.601Z,2.90
2019-05-07T21:55:26.850Z,2.81
2019-05-07T21:58:03.666Z,2.71
2019-05-07T22:00:33.272Z,2.70
2019-05-07T22:03:04.498Z,2.72
2019-05-07T22:05:35.086Z,2.57
2019-05-07T22:08:04.714Z,2.53
2019-05-07T22:10:34.186Z,2.49
2019-05-07T22:13:03.695Z,2.41
2019-05-07T22:15:33.343Z,2.59
2019-05-07T22:18:03.245Z,2.50
2019-05-07T22:20:32.735Z,2.55
2019-05-07T22:23:02.864Z,2.68
2019-05-07T22:25:32.874Z,2.71
2019-05-07T22:28:04.739Z,2.56
2019-05-07T22:30:44.171Z,2.35
2019-05-07T22:33:22.346Z,2.31
2019-05-07T22:35:52.357Z,2.27
2019-05-07T22:38:22.822Z,2.21
2019-05-07T22:40:52.341Z,2.25
2019-05-07T22:43:22.591Z,2.37
2019-05-07T22:45:52.212Z,2.23
2019-05-07T22:48:22.972Z,2.16
2019-05-07T22:50:52.458Z,2.09
2019-05-07T22:53:22.631Z,2.06
2019-05-07T22:55:52.599Z,2.07
2019-05-07T22:58:32.828Z,2.05
2019-05-07T23:01:03.949Z,1.95
2019-05-07T23:03:33.419Z,1.99
2019-05-07T23:06:08.960Z,1.97
2019-05-07T23:08:39.367Z,1.88
2019-05-07T23:14:29.849Z,1.85
2019-05-07T23:16:59.347Z,1.20
2019-05-07T23:19:32.496Z,1.88
2019-05-07T23:22:02.811Z,1.82
2019-05-07T23:24:32.323Z,1.89
2019-05-07T23:27:01.817Z,1.99
2019-05-07T23:29:33.070Z,2.08
2019-05-07T23:32:02.657Z,2.13
2019-05-07T23:34:32.686Z,2.09
2019-05-07T23:37:41.999Z,2.12
2019-05-07T23:40:23.039Z,2.21
2019-05-07T23:42:56.704Z,2.37
2019-05-07T23:45:26.199Z,2.50
2019-05-07T23:47:55.681Z,2.99
2019-05-07T23:50:25.178Z,2.78
2019-05-07T23:52:54.657Z,2.60
2019-05-07T23:55:24.130Z,2.71
2019-05-07T23:57:53.618Z,2.84
